createdAt,value
2024-02-04T00:00:19.934Z,83
2024-02-04T00:02:50.815Z,76
2024-02-04T00:05:21.279Z,68
2024-02-04T00:07:52.941Z,69
2024-02-04T00:10:26.944Z,76
2024-02-04T00:12:57.180Z,76
2024-02-04T00:15:28.024Z,80
2024-02-04T00:18:00.389Z,77
2024-02-04T00:20:30.444Z,67
2024-02-04T00:23:00.565Z,72
2024-02-04T00:25:32.510Z,72
2024-02-04T00:28:03.718Z,68
2024-02-04T00:30:34.258Z,68
2024-02-04T00:33:05.337Z,68
2024-02-04T00:35:36.125Z,65
2024-02-04T00:38:09.386Z,65
2024-02-04T00:40:39.493Z,68
2024-02-04T00:43:10.888Z,73
2024-02-04T00:45:41.559Z,69
2024-02-04T00:48:14.517Z,64
2024-02-04T00:50:45.351Z,64
2024-02-04T00:53:15.465Z,73
2024-02-04T00:55:53.980Z,64
2024-02-04T00:58:25.734Z,65
2024-02-04T01:01:05.461Z,68
2024-02-04T01:03:36.519Z,65
2024-02-04T01:06:07.028Z,60
2024-02-04T01:08:38.253Z,65
2024-02-04T01:11:15.188Z,60
2024-02-04T01:13:48.880Z,63
2024-02-04T01:16:22.186Z,56
2024-02-04T01:18:57.392Z,64
2024-02-04T01:21:27.667Z,64
2024-02-04T01:24:01.438Z,60
2024-02-04T01:26:32.310Z,65
2024-02-04T01:29:03.150Z,56
2024-02-04T01:31:33.526Z,61
2024-02-04T01:34:04.247Z,61
2024-02-04T01:36:35.421Z,70
2024-02-04T01:39:06.010Z,59
2024-02-04T01:41:37.691Z,83
2024-02-04T01:44:08.798Z,70
2024-02-04T01:46:40.779Z,65
2024-02-04T01:49:11.192Z,63
2024-02-04T01:51:42.072Z,57
2024-02-04T01:54:15.528Z,59
2024-02-04T01:56:47.953Z,64
2024-02-04T01:59:18.667Z,61
2024-02-04T02:01:48.598Z,61
2024-02-04T02:04:21.965Z,68
2024-02-04T02:06:53.890Z,67
2024-02-04T02:09:24.905Z,69
2024-02-04T02:11:55.784Z,68
2024-02-04T02:14:27.728Z,77
2024-02-04T02:16:58.364Z,80
2024-02-04T02:19:30.305Z,61
2024-02-04T02:22:00.702Z,67
2024-02-04T02:24:40.482Z,64
2024-02-04T02:27:14.157Z,63
2024-02-04T02:29:45.172Z,62
2024-02-04T02:32:18.193Z,60
2024-02-04T02:34:52.372Z,61
2024-02-04T02:37:23.312Z,59
2024-02-04T02:39:54.185Z,61
2024-02-04T02:42:25.345Z,60
2024-02-04T02:44:56.308Z,55
2024-02-04T02:47:27.366Z,61
2024-02-04T02:49:57.486Z,58
2024-02-04T02:52:28.553Z,58
2024-02-04T02:54:59.395Z,61
2024-02-04T02:57:32.300Z,59
2024-02-04T03:00:03.142Z,64
2024-02-04T03:02:36.642Z,67
2024-02-04T03:05:07.191Z,57
2024-02-04T03:07:38.664Z,61
2024-02-04T03:10:18.960Z,56
2024-02-04T03:12:51.248Z,52
2024-02-04T03:15:22.543Z,56
2024-02-04T03:17:53.323Z,57
2024-02-04T03:20:24.053Z,54
2024-02-04T03:23:03.866Z,66
2024-02-04T03:25:34.476Z,63
2024-02-04T03:28:05.592Z,55
2024-02-04T03:30:35.857Z,55
2024-02-04T03:33:08.325Z,53
2024-02-04T03:35:38.611Z,62
2024-02-04T03:40:48.930Z,80
2024-02-04T03:43:20.302Z,77
2024-02-04T03:45:51.437Z,83
2024-02-04T03:48:22.693Z,84
2024-02-04T03:50:52.845Z,74
2024-02-04T03:53:24.042Z,85
2024-02-04T03:55:54.328Z,82
2024-02-04T03:58:25.424Z,82
2024-02-04T04:00:56.164Z,91
2024-02-04T04:03:27.762Z,76
2024-02-04T04:05:59.767Z,78
2024-02-04T04:08:30.489Z,77
2024-02-04T04:11:01.409Z,76
2024-02-04T04:13:31.823Z,80
2024-02-04T04:16:03.905Z,76
2024-02-04T04:18:34.386Z,74
2024-02-04T04:21:05.105Z,80
2024-02-04T04:23:35.908Z,75
2024-02-04T04:26:06.683Z,79
2024-02-04T04:28:41.170Z,82
2024-02-04T04:31:12.440Z,80
2024-02-04T04:33:43.458Z,77
2024-02-04T04:36:14.640Z,70
2024-02-04T04:38:52.613Z,72
2024-02-04T04:41:24.381Z,67
2024-02-04T04:43:56.605Z,64
2024-02-04T04:46:27.514Z,68
2024-02-04T04:48:58.754Z,80
2024-02-04T04:51:29.967Z,71
2024-02-04T04:54:00.768Z,72
2024-02-04T04:56:31.294Z,72
2024-02-04T04:59:02.198Z,73
2024-02-04T05:01:40.722Z,77
2024-02-04T05:04:14.579Z,73
2024-02-04T05:06:45.868Z,80
2024-02-04T05:09:17.806Z,75
2024-02-04T05:11:50.954Z,73
2024-02-04T05:14:21.924Z,68
2024-02-04T05:16:52.591Z,67
2024-02-04T05:19:23.645Z,68
2024-02-04T05:21:53.988Z,68
2024-02-04T05:24:33.379Z,73
2024-02-04T05:27:04.217Z,78
2024-02-04T05:29:35.316Z,77
2024-02-04T05:32:11.105Z,74
2024-02-04T05:34:42.554Z,80
2024-02-04T05:37:12.812Z,80
2024-02-04T05:39:43.590Z,80
2024-02-04T05:42:18.228Z,74
2024-02-04T05:44:48.991Z,80
2024-02-04T05:47:20.797Z,80
2024-02-04T05:49:51.676Z,76
2024-02-04T05:52:25.673Z,72
2024-02-04T05:54:57.562Z,72
2024-02-04T05:57:31.713Z,78
2024-02-04T06:00:07.308Z,76
2024-02-04T06:02:42.103Z,76
2024-02-04T06:05:12.669Z,77
2024-02-04T06:07:46.880Z,85
2024-02-04T06:10:17.690Z,78
2024-02-04T06:12:50.882Z,82
2024-02-04T06:15:21.905Z,79
2024-02-04T06:17:56.988Z,83
2024-02-04T06:20:27.319Z,80
2024-02-04T06:23:00.551Z,81
2024-02-04T06:25:31.262Z,76
2024-02-04T06:28:01.883Z,81
2024-02-04T06:30:32.075Z,82
2024-02-04T06:33:03.109Z,80
2024-02-04T06:35:33.640Z,80
2024-02-04T06:38:04.335Z,81
2024-02-04T06:40:37.871Z,79
2024-02-04T06:43:09.253Z,84
2024-02-04T06:45:41.667Z,76
2024-02-04T06:48:14.116Z,74
2024-02-04T06:50:44.832Z,85
2024-02-04T06:53:15.057Z,81
2024-02-04T06:55:45.978Z,81
2024-02-04T06:58:16.872Z,82
2024-02-04T07:00:49.391Z,74
2024-02-04T07:03:19.688Z,71
2024-02-04T07:05:50.337Z,75
2024-02-04T07:08:20.825Z,74
2024-02-04T07:10:51.106Z,67
2024-02-04T07:13:21.804Z,75
2024-02-04T07:15:52.631Z,82
2024-02-04T07:18:26.963Z,96
2024-02-04T07:21:04.285Z,92
2024-02-04T07:23:35.497Z,81
2024-02-04T07:26:06.375Z,87
2024-02-04T07:28:40.273Z,88
2024-02-04T07:31:12.476Z,88
2024-02-04T07:33:43.575Z,87
2024-02-04T07:36:13.922Z,95
2024-02-04T07:38:45.224Z,91
2024-02-04T07:41:16.071Z,92
2024-02-04T07:43:47.474Z,89
2024-02-04T07:46:19.061Z,87
2024-02-04T07:48:51.181Z,92
2024-02-04T07:51:23.332Z,98
2024-02-04T07:53:53.863Z,125
2024-02-04T07:56:25.207Z,124
2024-02-04T07:58:56.525Z,109
2024-02-04T08:01:29.194Z,106
2024-02-04T08:04:04.277Z,92
2024-02-04T08:06:34.736Z,83
2024-02-04T08:09:07.082Z,86
2024-02-04T08:11:38.619Z,88
2024-02-04T08:14:12.967Z,90
2024-02-04T08:16:44.451Z,88
2024-02-04T08:19:17.415Z,76
2024-02-04T08:21:52.068Z,84
2024-02-04T08:24:22.261Z,88
2024-02-04T08:26:52.542Z,85
2024-02-04T08:29:23.463Z,84
2024-02-04T08:31:53.671Z,84
2024-02-04T08:34:27.627Z,76
2024-02-04T08:37:01.185Z,75
2024-02-04T08:39:29.769Z,76
2024-02-04T08:42:00.137Z,87
2024-02-04T08:50:33.187Z,68
2024-02-04T08:53:20.195Z,76
2024-02-04T08:55:54.599Z,76
2024-02-04T08:58:24.903Z,76
2024-02-04T09:00:55.030Z,73
2024-02-04T09:03:31.697Z,80
2024-02-04T09:06:02.646Z,81
2024-02-04T09:08:33.505Z,85
2024-02-04T09:11:04.097Z,86
2024-02-04T09:13:36.623Z,84
2024-02-04T09:16:07.018Z,78
2024-02-04T09:18:37.973Z,82
2024-02-04T09:21:17.172Z,75
2024-02-04T09:23:47.567Z,82
2024-02-04T09:26:19.901Z,82
2024-02-04T09:28:50.542Z,79
2024-02-04T09:31:30.149Z,71
2024-02-04T09:34:00.053Z,72
2024-02-04T09:36:31.429Z,52
2024-02-04T09:39:02.227Z,42
2024-02-04T09:41:32.661Z,29
2024-02-04T09:44:06.046Z,36
2024-02-04T09:46:40.052Z,30
2024-02-04T09:49:11.092Z,33
2024-02-04T09:51:42.210Z,36
2024-02-04T09:54:13.909Z,38
2024-02-04T09:56:44.381Z,37
2024-02-04T09:59:14.641Z,40
2024-02-04T10:01:45.130Z,44
2024-02-04T10:04:15.846Z,47
2024-02-04T10:06:46.249Z,43
2024-02-04T10:09:20.536Z,50
2024-02-04T10:11:52.878Z,43
2024-02-04T10:14:24.180Z,31
2024-02-04T10:16:55.147Z,24
2024-02-04T10:19:28.443Z,28
2024-02-04T10:22:03.294Z,16
2024-02-04T10:24:37.720Z,18
2024-02-04T10:27:13.598Z,19
2024-02-04T10:29:46.130Z,16
2024-02-04T10:32:23.619Z,20
2024-02-04T10:34:51.280Z,23
2024-02-04T10:37:24.257Z,19
2024-02-04T10:40:02.161Z,18
2024-02-04T10:42:37.378Z,22
2024-02-04T10:45:10.018Z,21
2024-02-04T10:47:44.055Z,27
2024-02-04T10:50:17.321Z,22
2024-02-04T10:52:50.362Z,21
2024-02-04T10:55:19.909Z,29
2024-02-04T10:57:50.063Z,24
2024-02-04T11:00:21.269Z,28
2024-02-04T11:02:52.451Z,22
2024-02-04T11:05:27.179Z,22
2024-02-04T11:07:58.328Z,28
2024-02-04T11:10:28.794Z,45
2024-02-04T11:12:59.837Z,28
2024-02-04T11:15:33.499Z,43
2024-02-04T11:18:07.300Z,59
2024-02-04T11:20:37.927Z,37
2024-02-04T11:23:10.998Z,31
2024-02-04T11:25:46.344Z,28
2024-02-04T11:28:16.760Z,23
2024-02-04T11:30:48.512Z,37
2024-02-04T11:33:22.461Z,35
2024-02-04T11:35:57.037Z,30
2024-02-04T11:38:27.659Z,29
2024-02-04T11:41:03.346Z,28
2024-02-04T11:43:37.554Z,29
2024-02-04T11:46:08.676Z,31
2024-02-04T11:48:37.390Z,35
2024-02-04T11:51:08.174Z,30
2024-02-04T11:53:38.563Z,30
2024-02-04T11:56:08.930Z,37
2024-02-04T11:58:39.596Z,24
2024-02-04T12:01:13.103Z,21
2024-02-04T12:03:42.613Z,20
2024-02-04T12:06:12.634Z,15
2024-02-04T12:08:44.033Z,14
2024-02-04T12:11:17.773Z,21
2024-02-04T12:13:47.900Z,18
2024-02-04T12:16:22.657Z,12
2024-02-04T12:18:55.593Z,12
2024-02-04T12:21:28.784Z,24
2024-02-04T12:23:59.126Z,15
2024-02-04T12:26:29.526Z,15
2024-02-04T12:28:59.704Z,15
2024-02-04T12:31:31.642Z,12
2024-02-04T12:34:02.567Z,16
2024-02-04T12:36:36.704Z,16
2024-02-04T12:39:08.057Z,14
2024-02-04T12:41:38.207Z,8
2024-02-04T12:44:13.574Z,12
2024-02-04T12:46:50.968Z,12
2024-02-04T12:49:21.563Z,9
2024-02-04T12:54:27.324Z,10
2024-02-04T12:56:59.647Z,8
2024-02-04T12:59:31.607Z,10
2024-02-04T13:02:05.187Z,14
2024-02-04T13:04:38.644Z,8
2024-02-04T13:07:10.489Z,13
2024-02-04T13:09:41.586Z,10
2024-02-04T13:12:15.758Z,8
2024-02-04T13:14:46.177Z,13
2024-02-04T13:17:16.419Z,13
2024-02-04T13:19:47.727Z,12
2024-02-04T13:22:18.634Z,13
2024-02-04T13:24:49.124Z,19
2024-02-04T13:27:19.712Z,23
2024-02-04T13:29:50.448Z,14
2024-02-04T13:32:22.339Z,12
2024-02-04T13:35:02.808Z,16
2024-02-04T13:37:34.598Z,10
2024-02-04T13:40:06.703Z,13
2024-02-04T13:42:37.650Z,13
2024-02-04T13:45:12.949Z,10
2024-02-04T13:47:43.426Z,11
2024-02-04T13:50:15.993Z,14
2024-02-04T13:52:46.219Z,13
2024-02-04T13:55:16.872Z,13
2024-02-04T13:57:47.652Z,14
2024-02-04T14:00:18.694Z,18
2024-02-04T14:02:48.875Z,17
2024-02-04T14:05:20.330Z,21
2024-02-04T14:07:52.602Z,21
2024-02-04T14:10:27.565Z,20
2024-02-04T14:13:00.196Z,18
2024-02-04T14:15:30.353Z,25
2024-02-04T14:18:00.856Z,18
2024-02-04T14:20:32.453Z,23
2024-02-04T14:23:03.088Z,23
2024-02-04T14:25:35.043Z,21
2024-02-04T14:28:06.863Z,22
2024-02-04T14:30:39.379Z,24
2024-02-04T14:33:09.796Z,18
2024-02-04T14:35:44.196Z,26
2024-02-04T14:38:15.568Z,22
2024-02-04T14:40:46.814Z,23
2024-02-04T14:43:18.047Z,25
2024-02-04T14:45:52.238Z,23
2024-02-04T14:48:23.456Z,28
2024-02-04T14:50:57.454Z,29
2024-02-04T14:53:28.366Z,24
2024-02-04T14:55:59.820Z,25
2024-02-04T14:58:33.254Z,28
2024-02-04T15:01:12.626Z,23
2024-02-04T15:03:52.153Z,24
2024-02-04T15:06:24.142Z,27
2024-02-04T15:08:54.140Z,26
2024-02-04T15:11:25.497Z,24
2024-02-04T15:13:55.908Z,24
2024-02-04T15:16:35.483Z,22
2024-02-04T15:19:06.447Z,28
2024-02-04T15:21:37.722Z,29
2024-02-04T15:24:08.314Z,32
2024-02-04T15:26:39.192Z,30
2024-02-04T15:29:14.100Z,26
2024-02-04T15:31:44.869Z,25
2024-02-04T15:34:16.465Z,32
2024-02-04T15:36:55.805Z,26
2024-02-04T15:39:35.261Z,24
2024-02-04T15:42:08.092Z,36
2024-02-04T15:44:44.441Z,26
2024-02-04T15:47:15.142Z,45
2024-02-04T15:49:44.576Z,42
2024-02-04T15:52:14.786Z,48
2024-02-04T15:54:44.917Z,61
2024-02-04T15:57:15.616Z,61
2024-02-04T15:59:45.561Z,57
2024-02-04T16:02:25.182Z,49
2024-02-04T16:04:56.283Z,61
2024-02-04T16:07:26.786Z,49
2024-02-04T16:09:59.718Z,51
2024-02-04T16:12:29.915Z,51
2024-02-04T16:14:59.934Z,52
2024-02-04T16:17:31.960Z,50
2024-02-04T16:20:05.218Z,50
2024-02-04T16:22:39.852Z,48
2024-02-04T16:25:10.154Z,47
2024-02-04T16:27:44.140Z,41
2024-02-04T16:30:15.764Z,47
2024-02-04T16:32:52.303Z,43
2024-02-04T16:35:21.873Z,36
2024-02-04T16:37:52.394Z,36
2024-02-04T16:40:25.940Z,36
2024-02-04T16:42:56.045Z,48
2024-02-04T16:45:26.782Z,39
2024-02-04T16:47:57.763Z,44
2024-02-04T16:50:30.471Z,44
2024-02-04T16:53:05.858Z,40
2024-02-04T16:55:45.266Z,36
2024-02-04T16:58:15.567Z,45
2024-02-04T17:00:49.706Z,52
2024-02-04T17:03:20.156Z,54
2024-02-04T17:05:55.961Z,48
2024-02-04T17:08:28.749Z,47
2024-02-04T17:10:59.742Z,52
2024-02-04T17:13:30.154Z,54
2024-02-04T17:16:01.221Z,64
2024-02-04T17:21:07.971Z,52
2024-02-04T17:23:41.377Z,56
2024-02-04T17:26:11.965Z,49
2024-02-04T17:28:43.178Z,52
2024-02-04T17:31:17.512Z,52
2024-02-04T17:33:49.738Z,71
2024-02-04T17:36:19.880Z,91
2024-02-04T17:38:48.355Z,101
2024-02-04T17:41:21.662Z,112
2024-02-04T17:43:51.680Z,111
2024-02-04T17:46:22.209Z,122
2024-02-04T17:48:52.490Z,94
2024-02-04T17:51:27.966Z,101
2024-02-04T17:53:57.961Z,92
2024-02-04T17:56:33.673Z,81
2024-02-04T17:59:07.272Z,80
2024-02-04T18:01:37.654Z,80
2024-02-04T18:04:06.272Z,72
2024-02-04T18:06:36.646Z,63
2024-02-04T18:09:08.925Z,56
2024-02-04T18:11:42.144Z,56
2024-02-04T18:14:16.467Z,56
2024-02-04T18:16:47.033Z,52
2024-02-04T18:19:17.314Z,53
2024-02-04T18:21:57.800Z,40
2024-02-04T18:24:33.168Z,46
2024-02-04T18:27:04.648Z,44
2024-02-04T18:29:34.699Z,73
2024-02-04T18:32:06.859Z,85
2024-02-04T18:34:37.542Z,81
2024-02-04T18:37:09.702Z,70
2024-02-04T18:39:40.607Z,68
2024-02-04T18:42:09.408Z,64
2024-02-04T18:44:39.269Z,65
2024-02-04T18:47:10.183Z,73
2024-02-04T18:49:44.117Z,71
2024-02-04T18:52:15.232Z,73
2024-02-04T18:54:47.844Z,68
2024-02-04T18:57:21.995Z,70
2024-02-04T18:59:52.300Z,72
2024-02-04T19:02:21.058Z,80
2024-02-04T19:05:03.326Z,89
2024-02-04T19:07:34.415Z,99
2024-02-04T19:10:07.677Z,98
2024-02-04T19:12:38.605Z,93
2024-02-04T19:15:08.666Z,90
2024-02-04T19:17:41.054Z,99
2024-02-04T19:20:08.675Z,93
2024-02-04T19:22:39.201Z,88
2024-02-04T19:25:09.491Z,120
2024-02-04T19:27:40.259Z,127
2024-02-04T19:30:11.299Z,134
2024-02-04T19:32:42.007Z,120
2024-02-04T19:35:18.948Z,96
2024-02-04T19:37:49.001Z,122
2024-02-04T19:40:22.840Z,116
2024-02-04T19:42:56.281Z,126
2024-02-04T19:45:26.808Z,119
2024-02-04T19:47:57.237Z,124
2024-02-04T19:50:27.287Z,122
2024-02-04T19:52:57.806Z,128
2024-02-04T19:55:26.199Z,112
2024-02-04T19:58:03.018Z,115
2024-02-04T20:00:35.519Z,113
2024-02-04T20:03:05.968Z,114
2024-02-04T20:05:37.213Z,115
2024-02-04T20:08:14.690Z,118
2024-02-04T20:10:49.700Z,128
2024-02-04T20:13:24.850Z,143
2024-02-04T20:15:55.827Z,147
2024-02-04T20:18:26.726Z,156
2024-02-04T20:20:57.219Z,128
2024-02-04T20:23:27.499Z,141
2024-02-04T20:26:07.758Z,140
2024-02-04T20:28:41.865Z,133
2024-02-04T20:31:17.537Z,137
2024-02-04T20:33:48.076Z,142
2024-02-04T20:36:21.172Z,144
2024-02-04T20:38:51.272Z,169
2024-02-04T20:41:21.804Z,162
2024-02-04T20:43:53.597Z,153
2024-02-04T20:46:24.628Z,170
2024-02-04T20:49:02.734Z,162
2024-02-04T20:51:34.493Z,147
2024-02-04T20:54:07.260Z,142
2024-02-04T20:56:38.459Z,150
2024-02-04T20:59:15.879Z,137
2024-02-04T21:01:53.752Z,138
2024-02-04T21:04:28.714Z,148
2024-02-04T21:06:58.637Z,150
2024-02-04T21:09:29.958Z,147
2024-02-04T21:12:00.848Z,134
2024-02-04T21:14:31.790Z,143
2024-02-04T21:17:04.215Z,134
2024-02-04T21:19:37.734Z,145
2024-02-04T21:22:10.206Z,156
2024-02-04T21:24:44.787Z,119
2024-02-04T21:27:19.791Z,109
2024-02-04T21:29:50.207Z,104
2024-02-04T21:32:21.017Z,93
2024-02-04T21:34:52.521Z,108
2024-02-04T21:37:28.443Z,117
2024-02-04T21:39:59.021Z,109
2024-02-04T21:42:30.780Z,123
2024-02-04T21:44:59.954Z,135
2024-02-04T21:47:29.792Z,142
2024-02-04T21:50:04.905Z,136
2024-02-04T21:52:36.851Z,133
2024-02-04T21:55:07.473Z,123
2024-02-04T21:57:38.887Z,125
2024-02-04T22:00:09.384Z,136
2024-02-04T22:02:40.234Z,127
2024-02-04T22:05:14.186Z,117
2024-02-04T22:07:48.320Z,109
2024-02-04T22:10:22.740Z,119
2024-02-04T22:12:54.864Z,119
2024-02-04T22:15:29.030Z,130
2024-02-04T22:18:03.586Z,123
2024-02-04T22:20:39.237Z,106
2024-02-04T22:23:10.834Z,105
2024-02-04T22:25:41.118Z,108
2024-02-04T22:28:13.360Z,113
2024-02-04T22:30:45.506Z,125
2024-02-04T22:33:17.646Z,109
2024-02-04T22:35:46.527Z,122
2024-02-04T22:38:20.974Z,94
2024-02-04T22:40:51.936Z,111
2024-02-04T22:43:22.276Z,101
2024-02-04T22:46:02.839Z,100
2024-02-04T22:48:33.571Z,101
2024-02-04T22:51:05.134Z,108
2024-02-04T22:53:34.056Z,94
2024-02-04T22:56:09.435Z,91
2024-02-04T22:58:40.433Z,88
2024-02-04T23:01:11.790Z,104
2024-02-04T23:03:41.588Z,86
2024-02-04T23:06:18.015Z,89
2024-02-04T23:08:46.864Z,91
2024-02-04T23:11:17.220Z,92
2024-02-04T23:13:47.916Z,91
2024-02-04T23:16:18.602Z,95
2024-02-04T23:18:49.052Z,92
2024-02-04T23:21:23.126Z,91
2024-02-04T23:23:55.008Z,84
2024-02-04T23:26:27.934Z,81
2024-02-04T23:29:02.609Z,84
2024-02-04T23:31:35.637Z,79
2024-02-04T23:34:07.499Z,84
2024-02-04T23:36:39.165Z,84
2024-02-04T23:39:10.242Z,85
2024-02-04T23:41:41.200Z,86
2024-02-04T23:44:14.889Z,92
2024-02-04T23:46:46.372Z,104
2024-02-04T23:49:17.584Z,101
2024-02-04T23:51:53.367Z,110
2024-02-04T23:54:25.095Z,103
2024-02-04T23:57:05.170Z,100
2024-02-04T23:59:36.862Z,108
